Time;durP1;ratioP1;P1;durP2;ratioP2;P2;SDS_P1;SDS_P2;PMS_P1;PMS_P2;Temp;Humidity;BMP_temperature;BMP_pressure;BME280_temperature;BME280_humidity;BME280_pressure;Samples;Min_cycle;Max_cycle;Signal;HPM_P1;HPM_P2
2023/09/07 00:00:01;;;;;;;7.22;4.00;;;;;;;;;;5060831;28;20197;-58
2023/09/07 00:02:27;;;;;;;6.78;3.95;;;;;;;;;;5060449;28;20060;-58
2023/09/07 00:04:53;;;;;;;8.07;3.78;;;;;;;;;;5058268;28;20042;-58
2023/09/07 00:07:20;;;;;;;13.10;4.07;;;;;;;;;;5059297;28;20044;-58
2023/09/07 00:09:46;;;;;;;7.85;4.00;;;;;;;;;;5060766;28;20052;-58
2023/09/07 00:12:12;;;;;;;6.82;3.70;;;;;;;;;;5065444;28;20048;-58
2023/09/07 00:14:38;;;;;;;6.47;4.15;;;;;;;;;;5068691;28;20124;-58
2023/09/07 00:17:05;;;;;;;7.60;4.28;;;;;;;;;;5061712;28;20049;-58
2023/09/07 00:19:33;;;;;;;7.80;3.85;;;;;;;;;;5063868;28;20094;-58
2023/09/07 00:21:59;;;;;;;10.07;5.03;;;;;;;;;;5068530;28;20078;-58
2023/09/07 00:24:26;;;;;;;8.55;4.28;;;;;;;;;;5068461;28;20363;-58
2023/09/07 00:26:52;;;;;;;5.32;3.50;;;;;;;;;;5070328;28;20040;-58
2023/09/07 00:29:18;;;;;;;7.22;3.83;;;;;;;;;;5065223;28;20456;-58
2023/09/07 00:31:44;;;;;;;7.30;4.38;;;;;;;;;;5063375;28;20045;-58
2023/09/07 00:34:11;;;;;;;8.77;4.00;;;;;;;;;;5068546;28;20054;-58
2023/09/07 00:36:37;;;;;;;7.70;4.20;;;;;;;;;;5068368;28;20098;-58
2023/09/07 00:39:03;;;;;;;8.13;4.32;;;;;;;;;;5056208;28;20401;-58
2023/09/07 00:41:29;;;;;;;7.45;3.67;;;;;;;;;;5059572;28;20479;-58
2023/09/07 00:43:55;;;;;;;8.25;4.10;;;;;;;;;;5059836;28;20044;-58
2023/09/07 00:46:22;;;;;;;7.18;4.00;;;;;;;;;;5059799;28;20037;-58
2023/09/07 00:48:48;;;;;;;6.88;3.80;;;;;;;;;;5058818;28;20054;-58
2023/09/07 00:51:15;;;;;;;7.35;3.70;;;;;;;;;;5058381;28;20493;-58
2023/09/07 00:53:41;;;;;;;7.00;3.75;;;;;;;;;;5056465;28;20509;-58
2023/09/07 00:56:08;;;;;;;7.50;3.75;;;;;;;;;;5061229;28;20048;-58
2023/09/07 00:58:34;;;;;;;6.00;3.55;;;;;;;;;;5059498;28;20089;-58
2023/09/07 01:01:00;;;;;;;8.35;3.85;;;;;;;;;;5055714;28;20059;-58
2023/09/07 01:03:27;;;;;;;6.63;3.67;;;;;;;;;;5057978;28;20135;-58
2023/09/07 01:05:57;;;;;;;9.00;3.92;;;;;;;;;;5060475;28;20378;-58
2023/09/07 01:08:28;;;;;;;8.43;4.20;;;;;;;;;;5056789;28;20033;-58
2023/09/07 01:10:54;;;;;;;8.15;4.30;;;;;;;;;;5061023;28;20183;-58
2023/09/07 01:13:20;;;;;;;8.27;3.85;;;;;;;;;;5064232;28;20055;-58
2023/09/07 01:15:47;;;;;;;6.43;3.85;;;;;;;;;;5061719;28;20388;-58
2023/09/07 01:18:14;;;;;;;8.43;4.68;;;;;;;;;;5061038;28;20049;-58
2023/09/07 01:20:41;;;;;;;9.25;4.35;;;;;;;;;;5063585;28;20066;-58
2023/09/07 01:23:08;;;;;;;9.10;4.97;;;;;;;;;;5070402;28;20356;-58
2023/09/07 01:25:34;;;;;;;7.25;4.45;;;;;;;;;;5063622;28;20504;-58
2023/09/07 01:28:01;;;;;;;9.27;4.55;;;;;;;;;;5063185;28;20063;-58
2023/09/07 01:30:30;;;;;;;8.68;4.70;;;;;;;;;;5063608;28;20101;-58
2023/09/07 01:32:56;;;;;;;7.72;4.43;;;;;;;;;;5063359;28;20404;-58
2023/09/07 01:35:22;;;;;;;8.88;4.65;;;;;;;;;;5062763;28;20044;-58
2023/09/07 01:37:49;;;;;;;10.65;5.07;;;;;;;;;;5060009;28;20550;-58
2023/09/07 01:40:15;;;;;;;11.02;4.60;;;;;;;;;;5070042;28;20040;-58
2023/09/07 01:42:41;;;;;;;8.43;4.70;;;;;;;;;;5063616;28;20049;-58
2023/09/07 01:45:08;;;;;;;7.28;5.30;;;;;;;;;;5067191;28;20083;-58
2023/09/07 01:47:34;;;;;;;9.95;4.70;;;;;;;;;;5071846;28;20056;-58
2023/09/07 01:50:00;;;;;;;10.45;5.15;;;;;;;;;;5068781;28;20169;-58
2023/09/07 01:52:26;;;;;;;6.93;3.97;;;;;;;;;;5065402;28;20123;-59
2023/09/07 01:54:52;;;;;;;6.60;4.80;;;;;;;;;;5062056;28;20048;-58
2023/09/07 01:57:19;;;;;;;12.48;4.70;;;;;;;;;;5059165;28;20055;-58
2023/09/07 01:59:45;;;;;;;8.80;4.45;;;;;;;;;;5063147;28;20132;-58
2023/09/07 02:02:11;;;;;;;8.82;4.78;;;;;;;;;;5063326;28;20075;-58
2023/09/07 02:04:37;;;;;;;8.32;4.28;;;;;;;;;;5060256;28;20107;-58
2023/09/07 02:07:04;;;;;;;7.35;4.38;;;;;;;;;;5060281;28;20037;-58
2023/09/07 02:09:31;;;;;;;11.00;4.60;;;;;;;;;;5063617;28;20041;-58
2023/09/07 02:11:57;;;;;;;11.10;4.80;;;;;;;;;;5063069;28;20049;-58
2023/09/07 02:14:23;;;;;;;7.05;4.72;;;;;;;;;;5061089;28;20079;-58
2023/09/07 02:16:49;;;;;;;8.98;5.70;;;;;;;;;;5062998;28;20089;-58
2023/09/07 02:19:17;;;;;;;10.30;4.95;;;;;;;;;;5063513;28;20041;-58
2023/09/07 02:21:43;;;;;;;7.80;5.25;;;;;;;;;;5062595;28;20741;-58
2023/09/07 02:24:10;;;;;;;7.95;5.40;;;;;;;;;;5062104;28;20036;-58
2023/09/07 02:26:36;;;;;;;7.07;5.07;;;;;;;;;;5062661;28;20043;-58
2023/09/07 02:29:05;;;;;;;7.35;5.32;;;;;;;;;;5062883;28;20052;-58
2023/09/07 02:31:31;;;;;;;8.13;4.97;;;;;;;;;;5061793;28;20040;-58
2023/09/07 02:33:57;;;;;;;6.43;5.25;;;;;;;;;;5060508;28;20040;-58
2023/09/07 02:36:23;;;;;;;11.82;5.78;;;;;;;;;;5063796;28;20475;-58
2023/09/07 02:38:50;;;;;;;6.78;5.05;;;;;;;;;;5062215;28;20041;-58
2023/09/07 02:41:16;;;;;;;9.32;5.95;;;;;;;;;;5060953;28;20059;-58
2023/09/07 02:43:42;;;;;;;12.07;5.78;;;;;;;;;;5062324;28;20040;-58
2023/09/07 02:46:08;;;;;;;7.35;5.00;;;;;;;;;;5061708;28;20055;-58
2023/09/07 02:48:34;;;;;;;9.35;5.38;;;;;;;;;;5062236;28;20053;-58
2023/09/07 02:51:01;;;;;;;11.57;5.30;;;;;;;;;;5062074;28;20060;-58
2023/09/07 02:53:27;;;;;;;8.65;5.30;;;;;;;;;;5064453;28;20052;-58
2023/09/07 02:55:53;;;;;;;9.05;5.15;;;;;;;;;;5069667;28;20044;-58
2023/09/07 02:58:19;;;;;;;8.75;5.20;;;;;;;;;;5065939;28;20508;-58
2023/09/07 03:00:46;;;;;;;9.50;5.70;;;;;;;;;;5058654;28;22088;-58
2023/09/07 03:03:13;;;;;;;8.98;5.38;;;;;;;;;;5066812;28;20083;-58
2023/09/07 03:05:43;;;;;;;9.52;5.55;;;;;;;;;;5067921;28;20032;-58
2023/09/07 03:08:09;;;;;;;9.63;5.65;;;;;;;;;;5068450;28;20056;-58
2023/09/07 03:10:37;;;;;;;9.38;5.57;;;;;;;;;;5062111;28;20119;-58
2023/09/07 03:13:03;;;;;;;8.85;5.47;;;;;;;;;;5060127;28;20045;-57
2023/09/07 03:15:30;;;;;;;8.82;5.28;;;;;;;;;;5058795;28;20083;-58
2023/09/07 03:17:56;;;;;;;9.07;5.07;;;;;;;;;;5060050;28;20044;-58
2023/09/07 03:20:22;;;;;;;9.95;5.15;;;;;;;;;;5060708;28;20047;-58
2023/09/07 03:22:49;;;;;;;9.73;5.30;;;;;;;;;;5061096;28;20060;-58
2023/09/07 03:25:15;;;;;;;8.68;5.50;;;;;;;;;;5062717;28;20044;-58
2023/09/07 03:27:41;;;;;;;7.45;5.38;;;;;;;;;;5062499;28;20066;-58
2023/09/07 03:30:07;;;;;;;8.07;5.35;;;;;;;;;;5060594;28;20549;-58
2023/09/07 03:32:34;;;;;;;9.02;5.75;;;;;;;;;;5059092;28;20105;-58
2023/09/07 03:35:00;;;;;;;9.50;4.78;;;;;;;;;;5062803;28;20028;-58
2023/09/07 03:37:28;;;;;;;7.22;4.75;;;;;;;;;;5059796;28;20389;-58
2023/09/07 03:39:54;;;;;;;9.77;5.32;;;;;;;;;;5061873;28;20047;-58
2023/09/07 03:42:20;;;;;;;10.27;5.70;;;;;;;;;;5058689;28;20057;-59
2023/09/07 03:44:46;;;;;;;9.23;5.05;;;;;;;;;;5059543;28;21953;-58
2023/09/07 03:47:15;;;;;;;6.85;5.15;;;;;;;;;;5059996;28;20136;-58
2023/09/07 03:49:41;;;;;;;9.75;5.53;;;;;;;;;;5060450;28;20177;-58
2023/09/07 03:52:07;;;;;;;9.95;5.43;;;;;;;;;;5057219;28;20502;-58
2023/09/07 03:54:33;;;;;;;8.68;5.85;;;;;;;;;;5060347;28;20062;-58
2023/09/07 03:57:00;;;;;;;9.43;5.82;;;;;;;;;;5059479;28;20981;-58
2023/09/07 03:59:27;;;;;;;7.40;5.80;;;;;;;;;;5060704;28;20086;-58
2023/09/07 04:01:54;;;;;;;8.70;5.50;;;;;;;;;;5062290;28;20215;-58
2023/09/07 04:04:21;;;;;;;11.75;5.82;;;;;;;;;;5059907;28;20116;-58
2023/09/07 04:06:50;;;;;;;8.93;6.03;;;;;;;;;;5060272;28;20412;-58
2023/09/07 04:09:16;;;;;;;10.70;5.75;;;;;;;;;;5059046;28;20040;-58
2023/09/07 04:11:43;;;;;;;7.32;5.65;;;;;;;;;;5067683;28;20052;-58
2023/09/07 04:14:09;;;;;;;13.52;5.85;;;;;;;;;;5066270;28;20040;-58
2023/09/07 04:16:35;;;;;;;10.82;6.18;;;;;;;;;;5063932;28;20371;-58
2023/09/07 04:19:01;;;;;;;8.73;5.72;;;;;;;;;;5059195;28;20040;-58
2023/09/07 04:21:27;;;;;;;11.65;6.38;;;;;;;;;;5061725;28;20049;-58
2023/09/07 04:23:53;;;;;;;11.73;5.78;;;;;;;;;;5066669;28;20082;-58
2023/09/07 04:26:19;;;;;;;11.77;6.35;;;;;;;;;;5068458;28;20036;-58
2023/09/07 04:28:46;;;;;;;8.55;5.53;;;;;;;;;;5070565;28;20090;-58
2023/09/07 04:31:12;;;;;;;8.25;5.85;;;;;;;;;;5068029;28;20048;-58
2023/09/07 04:33:38;;;;;;;8.80;6.40;;;;;;;;;;5056880;28;20044;-58
2023/09/07 04:36:08;;;;;;;9.73;5.78;;;;;;;;;;5063490;28;20036;-58
2023/09/07 04:38:34;;;;;;;9.13;5.63;;;;;;;;;;5060568;28;20119;-58
2023/09/07 04:41:10;;;;;;;11.35;6.22;;;;;;;;;;5059968;28;20064;-58
2023/09/07 04:43:36;;;;;;;9.93;6.20;;;;;;;;;;5061725;28;20052;-58
2023/09/07 04:46:03;;;;;;;9.55;5.40;;;;;;;;;;5062312;28;20028;-58
2023/09/07 04:48:29;;;;;;;8.52;5.32;;;;;;;;;;5065040;28;20080;-57
2023/09/07 04:51:06;;;;;;;7.50;5.72;;;;;;;;;;5063852;28;20511;-58
2023/09/07 04:53:36;;;;;;;10.13;5.68;;;;;;;;;;5063102;28;20483;-58
2023/09/07 04:56:02;;;;;;;12.07;5.85;;;;;;;;;;5064400;28;20618;-58
2023/09/07 04:58:29;;;;;;;8.55;6.20;;;;;;;;;;5063272;28;20101;-58
2023/09/07 05:00:55;;;;;;;8.02;5.97;;;;;;;;;;5066907;28;20036;-58
2023/09/07 05:03:21;;;;;;;11.18;6.53;;;;;;;;;;5068187;28;20362;-58
2023/09/07 05:05:52;;;;;;;9.10;6.07;;;;;;;;;;5069889;28;20082;-58
2023/09/07 05:08:18;;;;;;;10.25;5.88;;;;;;;;;;5064526;28;20140;-57
2023/09/07 05:10:44;;;;;;;13.88;6.38;;;;;;;;;;5073682;28;20079;-58
2023/09/07 05:13:11;;;;;;;10.32;6.28;;;;;;;;;;5068324;28;20500;-58
2023/09/07 05:15:37;;;;;;;10.80;5.85;;;;;;;;;;5068915;28;20044;-58
2023/09/07 05:18:03;;;;;;;11.18;5.85;;;;;;;;;;5074118;28;20044;-59
2023/09/07 05:20:32;;;;;;;8.48;6.20;;;;;;;;;;5073937;28;20044;-58
2023/09/07 05:23:00;;;;;;;8.68;5.40;;;;;;;;;;5065592;28;20499;-58
2023/09/07 05:25:27;;;;;;;8.75;6.28;;;;;;;;;;5068201;28;20108;-58
2023/09/07 05:27:53;;;;;;;10.20;6.30;;;;;;;;;;5070697;28;20040;-58
2023/09/07 05:30:19;;;;;;;9.27;6.45;;;;;;;;;;5073801;28;20119;-58
2023/09/07 05:32:46;;;;;;;9.23;6.10;;;;;;;;;;5067237;28;20116;-58
2023/09/07 05:35:12;;;;;;;9.40;6.20;;;;;;;;;;5061223;28;20045;-58
2023/09/07 05:37:38;;;;;;;9.57;6.43;;;;;;;;;;5064171;28;20123;-58
2023/09/07 05:40:04;;;;;;;10.60;6.68;;;;;;;;;;5062086;28;20531;-58
2023/09/07 05:42:31;;;;;;;11.60;5.88;;;;;;;;;;5062940;28;20047;-58
2023/09/07 05:44:57;;;;;;;9.18;6.38;;;;;;;;;;5070685;28;20045;-58
2023/09/07 05:47:26;;;;;;;8.20;6.32;;;;;;;;;;5070147;28;20492;-58
2023/09/07 05:49:52;;;;;;;8.15;6.35;;;;;;;;;;5067865;28;20112;-58
2023/09/07 05:52:18;;;;;;;11.40;6.18;;;;;;;;;;5071180;28;20384;-57
2023/09/07 05:54:44;;;;;;;9.45;6.57;;;;;;;;;;5069948;28;20443;-58
2023/09/07 05:57:11;;;;;;;9.00;5.82;;;;;;;;;;5069503;28;20041;-57
2023/09/07 05:59:37;;;;;;;12.88;6.00;;;;;;;;;;5072219;28;20076;-58
2023/09/07 06:02:03;;;;;;;10.10;6.60;;;;;;;;;;5062917;28;20044;-58
2023/09/07 06:04:30;;;;;;;11.35;6.07;;;;;;;;;;5061912;28;20049;-57
2023/09/07 06:06:56;;;;;;;12.30;6.88;;;;;;;;;;5061647;28;20313;-57
2023/09/07 06:09:22;;;;;;;9.13;5.95;;;;;;;;;;5067329;28;20395;-58
2023/09/07 06:11:48;;;;;;;11.80;5.93;;;;;;;;;;5064454;28;20041;-58
2023/09/07 06:14:14;;;;;;;7.80;6.00;;;;;;;;;;5066114;28;20037;-58
2023/09/07 06:16:41;;;;;;;15.32;6.40;;;;;;;;;;5063769;28;20047;-58
2023/09/07 06:19:07;;;;;;;9.55;5.80;;;;;;;;;;5063250;28;20064;-58
2023/09/07 06:21:33;;;;;;;11.63;6.07;;;;;;;;;;5063258;28;20076;-58
2023/09/07 06:23:59;;;;;;;10.55;6.03;;;;;;;;;;5067482;28;20108;-58
2023/09/07 06:26:26;;;;;;;8.35;5.32;;;;;;;;;;5060008;28;20150;-58
2023/09/07 06:28:52;;;;;;;12.38;6.43;;;;;;;;;;5099207;28;20044;-58
2023/09/07 06:31:18;;;;;;;9.88;7.07;;;;;;;;;;5056364;28;20119;-58
2023/09/07 06:33:44;;;;;;;6.82;5.93;;;;;;;;;;5055356;28;20527;-58
2023/09/07 06:36:10;;;;;;;11.00;6.63;;;;;;;;;;5055701;28;20045;-58
2023/09/07 06:38:36;;;;;;;11.98;6.47;;;;;;;;;;5061847;28;20375;-58
2023/09/07 06:41:03;;;;;;;12.25;6.05;;;;;;;;;;5061725;28;20056;-58
2023/09/07 06:43:30;;;;;;;9.40;6.35;;;;;;;;;;5068723;28;20462;-58
2023/09/07 06:46:02;;;;;;;9.52;6.28;;;;;;;;;;5068319;28;20468;-58
2023/09/07 06:48:28;;;;;;;10.07;6.00;;;;;;;;;;5068586;28;20125;-58
2023/09/07 06:50:54;;;;;;;13.55;6.70;;;;;;;;;;5060295;28;20504;-58
2023/09/07 06:53:20;;;;;;;10.32;6.43;;;;;;;;;;5054714;28;20040;-58
2023/09/07 06:55:47;;;;;;;7.47;5.72;;;;;;;;;;5053564;28;20102;-58
2023/09/07 06:58:13;;;;;;;11.60;6.60;;;;;;;;;;5065369;28;20484;-58
2023/09/07 07:00:39;;;;;;;8.00;6.25;;;;;;;;;;5101986;27;20076;-58
2023/09/07 07:03:05;;;;;;;9.82;6.68;;;;;;;;;;5058343;28;20378;-58
2023/09/07 07:05:33;;;;;;;9.75;6.13;;;;;;;;;;5091651;28;20037;-58
2023/09/07 07:08:00;;;;;;;11.82;6.30;;;;;;;;;;5066645;28;20518;-58
2023/09/07 07:10:26;;;;;;;10.93;6.53;;;;;;;;;;5071302;28;20040;-58
2023/09/07 07:12:52;;;;;;;9.18;6.10;;;;;;;;;;5071575;28;20087;-59
2023/09/07 07:15:19;;;;;;;9.88;6.85;;;;;;;;;;5071047;28;20078;-58
2023/09/07 07:17:45;;;;;;;10.38;5.57;;;;;;;;;;5072136;28;20048;-58
2023/09/07 07:20:11;;;;;;;12.15;6.25;;;;;;;;;;5071152;28;20433;-58
2023/09/07 07:22:37;;;;;;;14.93;6.80;;;;;;;;;;5069497;28;20488;-58
2023/09/07 07:25:05;;;;;;;13.32;6.40;;;;;;;;;;5070516;28;20037;-58
2023/09/07 07:27:32;;;;;;;10.60;7.35;;;;;;;;;;5070062;28;20044;-58
2023/09/07 07:29:58;;;;;;;9.98;6.03;;;;;;;;;;5070780;28;20484;-58
2023/09/07 07:32:24;;;;;;;9.65;6.72;;;;;;;;;;5070900;28;20062;-58
2023/09/07 07:34:50;;;;;;;8.52;6.03;;;;;;;;;;5070556;28;20041;-58
2023/09/07 07:37:17;;;;;;;11.43;6.00;;;;;;;;;;5070592;28;20512;-58
2023/09/07 07:39:43;;;;;;;12.48;6.32;;;;;;;;;;5066342;28;20033;-59
2023/09/07 07:42:09;;;;;;;10.25;6.07;;;;;;;;;;5060692;28;20036;-58
2023/09/07 07:44:35;;;;;;;10.93;6.10;;;;;;;;;;5071113;28;20106;-58
2023/09/07 07:47:01;;;;;;;10.80;6.13;;;;;;;;;;5071018;28;20052;-58
2023/09/07 07:49:28;;;;;;;9.70;5.75;;;;;;;;;;5069600;28;20102;-58
2023/09/07 07:51:55;;;;;;;8.20;4.97;;;;;;;;;;5070445;28;20036;-58
2023/09/07 07:54:24;;;;;;;8.57;5.45;;;;;;;;;;5070909;28;20048;-58
2023/09/07 07:56:51;;;;;;;7.90;5.78;;;;;;;;;;5070269;28;20516;-58
2023/09/07 07:59:17;;;;;;;9.85;5.15;;;;;;;;;;5071149;28;20094;-58
2023/09/07 08:01:44;;;;;;;7.30;5.20;;;;;;;;;;5063235;28;20049;-58
2023/09/07 08:04:11;;;;;;;10.13;5.25;;;;;;;;;;5068287;28;20040;-58
2023/09/07 08:06:37;;;;;;;12.07;4.97;;;;;;;;;;5060497;28;20052;-58
2023/09/07 08:09:03;;;;;;;9.07;4.35;;;;;;;;;;5066256;28;20115;-58
2023/09/07 08:11:29;;;;;;;7.07;4.45;;;;;;;;;;5066355;28;20040;-58
2023/09/07 08:13:56;;;;;;;9.65;4.55;;;;;;;;;;5071755;28;20100;-58
2023/09/07 08:16:22;;;;;;;10.68;5.15;;;;;;;;;;5071032;28;20438;-58
2023/09/07 08:18:48;;;;;;;9.45;4.68;;;;;;;;;;5068927;28;20037;-59
2023/09/07 08:21:15;;;;;;;6.97;4.72;;;;;;;;;;5070163;28;20383;-58
2023/09/07 08:23:41;;;;;;;8.63;4.25;;;;;;;;;;5069276;28;20441;-59
2023/09/07 08:26:09;;;;;;;9.75;4.57;;;;;;;;;;5070591;28;20092;-59
2023/09/07 08:28:35;;;;;;;7.75;5.18;;;;;;;;;;5071123;28;20045;-59
2023/09/07 08:31:04;;;;;;;7.97;5.28;;;;;;;;;;5067580;28;20079;-59
2023/09/07 08:33:33;;;;;;;5.93;3.83;;;;;;;;;;5070127;28;20049;-59
2023/09/07 08:36:01;;;;;;;8.07;4.72;;;;;;;;;;5070303;28;20062;-59
2023/09/07 08:38:27;;;;;;;8.15;4.30;;;;;;;;;;5069722;28;20410;-59
2023/09/07 08:40:57;;;;;;;7.45;4.80;;;;;;;;;;5069220;28;20040;-59
2023/09/07 08:43:24;;;;;;;8.40;4.53;;;;;;;;;;5063751;28;20106;-59
2023/09/07 08:46:05;;;;;;;9.40;4.95;;;;;;;;;;5068840;28;20099;-59
2023/09/07 08:48:31;;;;;;;10.30;5.00;;;;;;;;;;5068843;28;20094;-58
2023/09/07 08:50:58;;;;;;;8.98;5.32;;;;;;;;;;5069039;28;20609;-59
2023/09/07 08:53:25;;;;;;;6.28;4.03;;;;;;;;;;5069785;28;20044;-59
2023/09/07 08:55:52;;;;;;;12.02;5.55;;;;;;;;;;5069048;28;20036;-59
2023/09/07 08:58:18;;;;;;;7.78;4.88;;;;;;;;;;5070119;28;20041;-59
2023/09/07 09:00:45;;;;;;;9.80;4.35;;;;;;;;;;5068967;28;20062;-59
2023/09/07 09:03:11;;;;;;;8.70;4.57;;;;;;;;;;5070405;28;20392;-59
2023/09/07 09:05:40;;;;;;;14.70;4.35;;;;;;;;;;5069518;28;20119;-59
2023/09/07 09:08:06;;;;;;;9.82;4.55;;;;;;;;;;5068257;28;20117;-59
2023/09/07 09:10:33;;;;;;;5.82;3.55;;;;;;;;;;5069669;28;20049;-59
2023/09/07 09:12:59;;;;;;;6.90;4.10;;;;;;;;;;5068888;28;20041;-59
2023/09/07 09:15:28;;;;;;;7.07;4.03;;;;;;;;;;5068858;28;20364;-59
2023/09/07 09:17:54;;;;;;;6.75;3.58;;;;;;;;;;5056463;28;20051;-59
2023/09/07 09:20:22;;;;;;;7.78;3.58;;;;;;;;;;5068940;28;20456;-59
2023/09/07 09:22:50;;;;;;;9.90;4.45;;;;;;;;;;5070245;28;20571;-58
2023/09/07 09:25:16;;;;;;;6.22;3.50;;;;;;;;;;5069693;28;20400;-59
2023/09/07 09:27:42;;;;;;;11.25;4.00;;;;;;;;;;5068933;28;20463;-59
2023/09/07 09:30:09;;;;;;;5.18;3.40;;;;;;;;;;5072507;28;20047;-59
2023/09/07 09:32:35;;;;;;;6.25;3.45;;;;;;;;;;5072127;28;20079;-59
2023/09/07 09:35:02;;;;;;;12.88;4.40;;;;;;;;;;5070779;28;20077;-59
2023/09/07 09:37:29;;;;;;;8.68;3.45;;;;;;;;;;5073775;28;20045;-59
2023/09/07 09:39:57;;;;;;;7.70;3.75;;;;;;;;;;5073904;28;20094;-59
2023/09/07 09:42:24;;;;;;;10.13;3.90;;;;;;;;;;5072766;28;20111;-59
2023/09/07 09:44:51;;;;;;;6.35;3.70;;;;;;;;;;5072448;28;20144;-59
2023/09/07 09:47:18;;;;;;;8.02;3.75;;;;;;;;;;5073245;28;20407;-59
2023/09/07 09:49:44;;;;;;;7.50;3.60;;;;;;;;;;5073002;28;20068;-59
2023/09/07 09:52:11;;;;;;;8.57;3.30;;;;;;;;;;5072840;28;20043;-60
2023/09/07 09:54:38;;;;;;;7.25;3.13;;;;;;;;;;5072606;28;20178;-59
2023/09/07 09:57:05;;;;;;;8.35;3.58;;;;;;;;;;5072707;28;20120;-59
2023/09/07 09:59:31;;;;;;;6.43;3.35;;;;;;;;;;5072250;28;20036;-57
2023/09/07 10:01:57;;;;;;;7.32;3.47;;;;;;;;;;5073637;28;20213;-57
2023/09/07 10:04:24;;;;;;;5.70;3.60;;;;;;;;;;5069170;28;20384;-57
2023/09/07 10:06:54;;;;;;;8.35;3.10;;;;;;;;;;5069438;28;20041;-57
2023/09/07 10:09:21;;;;;;;8.07;2.88;;;;;;;;;;5071399;28;20411;-57
2023/09/07 10:11:52;;;;;;;7.32;3.88;;;;;;;;;;5073058;28;20036;-57
2023/09/07 10:14:18;;;;;;;6.88;3.30;;;;;;;;;;5071517;28;20042;-57
2023/09/07 10:16:45;;;;;;;6.97;3.40;;;;;;;;;;5072300;28;20040;-57
2023/09/07 10:19:18;;;;;;;10.35;3.22;;;;;;;;;;5072526;28;20408;-57
2023/09/07 10:21:45;;;;;;;4.70;3.17;;;;;;;;;;5073028;28;20044;-57
2023/09/07 10:24:11;;;;;;;4.75;2.63;;;;;;;;;;5071371;28;20161;-57
2023/09/07 10:26:38;;;;;;;6.70;2.92;;;;;;;;;;5073082;28;20397;-57
2023/09/07 10:29:05;;;;;;;4.95;2.90;;;;;;;;;;5073364;28;20119;-57
2023/09/07 10:31:31;;;;;;;5.50;2.83;;;;;;;;;;5071419;28;20088;-57
2023/09/07 10:34:09;;;;;;;9.13;3.33;;;;;;;;;;5071461;28;20089;-57
2023/09/07 10:36:37;;;;;;;5.90;2.75;;;;;;;;;;5059032;28;20048;-57
2023/09/07 10:39:06;;;;;;;6.30;2.80;;;;;;;;;;5071446;28;20073;-56
2023/09/07 10:41:45;;;;;;;5.45;2.83;;;;;;;;;;5066018;28;20037;-56
2023/09/07 10:44:13;;;;;;;5.72;3.00;;;;;;;;;;5068815;28;20040;-56
2023/09/07 10:46:39;;;;;;;6.32;2.88;;;;;;;;;;5074457;28;20052;-56
2023/09/07 10:49:11;;;;;;;9.07;3.13;;;;;;;;;;5070963;28;20029;-57
2023/09/07 10:51:42;;;;;;;4.88;3.00;;;;;;;;;;5071850;28;20044;-57
2023/09/07 10:54:15;;;;;;;5.28;2.90;;;;;;;;;;5072293;28;20044;-57
2023/09/07 10:56:44;;;;;;;6.95;2.78;;;;;;;;;;5072383;28;20345;-58
2023/09/07 10:59:10;;;;;;;5.70;2.70;;;;;;;;;;5069977;28;20059;-57
2023/09/07 11:01:36;;;;;;;5.32;2.50;;;;;;;;;;5072394;28;20196;-57
2023/09/07 11:04:03;;;;;;;5.65;2.67;;;;;;;;;;5071488;28;20044;-57
2023/09/07 11:06:30;;;;;;;6.05;2.67;;;;;;;;;;5071364;28;20123;-57
2023/09/07 11:08:56;;;;;;;6.07;2.80;;;;;;;;;;5069723;28;20128;-57
2023/09/07 11:11:22;;;;;;;6.07;2.53;;;;;;;;;;5071469;28;20032;-57
2023/09/07 11:13:49;;;;;;;4.57;2.50;;;;;;;;;;5071217;28;20124;-57
2023/09/07 11:16:15;;;;;;;8.07;2.80;;;;;;;;;;5070851;28;20029;-57
2023/09/07 11:18:41;;;;;;;7.43;3.00;;;;;;;;;;5070891;28;20080;-57
2023/09/07 11:21:07;;;;;;;6.10;2.90;;;;;;;;;;5070839;28;20063;-57
2023/09/07 11:23:37;;;;;;;5.45;2.55;;;;;;;;;;5072029;28;20417;-57
2023/09/07 11:26:08;;;;;;;5.43;2.70;;;;;;;;;;5071106;28;20041;-57
2023/09/07 11:28:34;;;;;;;4.97;2.83;;;;;;;;;;5069798;28;20045;-58
2023/09/07 11:31:00;;;;;;;6.57;2.72;;;;;;;;;;5070138;28;20083;-57
2023/09/07 11:33:27;;;;;;;4.80;2.42;;;;;;;;;;5071464;28;20045;-57
2023/09/07 11:35:56;;;;;;;5.47;2.45;;;;;;;;;;5067424;28;20032;-57
2023/09/07 11:38:23;;;;;;;4.35;2.35;;;;;;;;;;5071777;28;20037;-57
2023/09/07 11:40:49;;;;;;;8.07;3.10;;;;;;;;;;5070580;28;20185;-57
2023/09/07 11:43:18;;;;;;;4.00;2.40;;;;;;;;;;5071408;28;20096;-57
2023/09/07 11:45:46;;;;;;;7.60;2.33;;;;;;;;;;5069430;28;20055;-57
2023/09/07 11:48:12;;;;;;;6.65;3.00;;;;;;;;;;5068345;28;20053;-57
2023/09/07 11:50:40;;;;;;;7.03;2.58;;;;;;;;;;5069662;28;20063;-57
2023/09/07 11:53:07;;;;;;;4.75;2.75;;;;;;;;;;5070271;28;20237;-57
2023/09/07 11:55:35;;;;;;;6.63;2.72;;;;;;;;;;5070157;28;20044;-57
2023/09/07 11:58:05;;;;;;;4.50;2.77;;;;;;;;;;5070410;28;20048;-57
2023/09/07 12:00:31;;;;;;;6.45;2.63;;;;;;;;;;5070893;28;20052;-57
2023/09/07 12:02:58;;;;;;;6.97;2.97;;;;;;;;;;5067740;28;20032;-57
2023/09/07 12:05:24;;;;;;;5.55;2.50;;;;;;;;;;5070896;28;20123;-57
2023/09/07 12:07:50;;;;;;;6.63;2.88;;;;;;;;;;5071116;28;20511;-57
2023/09/07 12:10:16;;;;;;;5.20;3.38;;;;;;;;;;5069640;28;20044;-58
2023/09/07 12:12:44;;;;;;;7.13;3.05;;;;;;;;;;5069546;28;20132;-58
2023/09/07 12:15:13;;;;;;;7.32;3.10;;;;;;;;;;5070988;28;20443;-57
2023/09/07 12:17:40;;;;;;;4.80;2.50;;;;;;;;;;5069526;28;20507;-57
2023/09/07 12:20:09;;;;;;;6.20;2.67;;;;;;;;;;5070258;28;20076;-57
2023/09/07 12:22:39;;;;;;;6.72;3.10;;;;;;;;;;5069812;28;20056;-57
2023/09/07 12:25:09;;;;;;;5.25;3.05;;;;;;;;;;5070095;28;20044;-58
2023/09/07 12:27:37;;;;;;;5.40;2.88;;;;;;;;;;5070726;28;20040;-57
2023/09/07 12:30:08;;;;;;;7.32;3.00;;;;;;;;;;5068733;28;20150;-57
2023/09/07 12:32:34;;;;;;;5.45;2.70;;;;;;;;;;5068841;28;20093;-57
2023/09/07 12:35:00;;;;;;;5.20;2.78;;;;;;;;;;5070731;28;20072;-58
2023/09/07 12:37:26;;;;;;;5.53;2.70;;;;;;;;;;5069995;28;20089;-58
2023/09/07 12:39:53;;;;;;;6.13;2.75;;;;;;;;;;5070391;28;20033;-57
2023/09/07 12:42:19;;;;;;;8.75;3.28;;;;;;;;;;5070368;28;20395;-57
2023/09/07 12:44:45;;;;;;;7.45;2.88;;;;;;;;;;5069758;28;20514;-57
2023/09/07 12:47:11;;;;;;;6.75;2.90;;;;;;;;;;5070076;28;20144;-58
2023/09/07 12:49:37;;;;;;;7.05;3.05;;;;;;;;;;5070235;28;20362;-57
2023/09/07 12:52:08;;;;;;;5.40;2.60;;;;;;;;;;5069452;28;20037;-57
2023/09/07 12:54:36;;;;;;;4.13;2.70;;;;;;;;;;5066434;28;20044;-57
2023/09/07 12:57:03;;;;;;;6.60;3.03;;;;;;;;;;5060092;28;20131;-57
2023/09/07 12:59:29;;;;;;;5.53;3.10;;;;;;;;;;5058221;28;20404;-58
2023/09/07 13:01:55;;;;;;;4.32;2.42;;;;;;;;;;5059636;28;20048;-57
2023/09/07 13:04:22;;;;;;;4.93;3.00;;;;;;;;;;5064749;28;20345;-57
2023/09/07 13:06:48;;;;;;;9.43;2.90;;;;;;;;;;5064724;28;20228;-57
2023/09/07 13:09:14;;;;;;;4.63;2.50;;;;;;;;;;5067485;28;20758;-57
2023/09/07 13:11:41;;;;;;;6.35;2.72;;;;;;;;;;5066134;28;20118;-57
2023/09/07 13:14:08;;;;;;;4.35;2.50;;;;;;;;;;5066420;28;20041;-58
2023/09/07 13:16:34;;;;;;;6.95;2.60;;;;;;;;;;5067033;28;20177;-57
2023/09/07 13:19:01;;;;;;;5.15;2.85;;;;;;;;;;5063627;28;20056;-57
2023/09/07 13:21:27;;;;;;;4.72;2.50;;;;;;;;;;5067820;28;20156;-57
2023/09/07 13:23:53;;;;;;;5.90;2.55;;;;;;;;;;5065356;28;20411;-58
2023/09/07 13:26:19;;;;;;;6.93;2.47;;;;;;;;;;5064502;28;20053;-57
2023/09/07 13:28:45;;;;;;;7.95;2.53;;;;;;;;;;5064373;28;20127;-57
2023/09/07 13:31:12;;;;;;;7.15;2.80;;;;;;;;;;5067386;28;20627;-57
2023/09/07 13:33:38;;;;;;;5.78;2.88;;;;;;;;;;5073228;28;20044;-57
2023/09/07 13:36:04;;;;;;;7.25;2.88;;;;;;;;;;5073192;28;20041;-57
2023/09/07 13:38:30;;;;;;;5.00;2.35;;;;;;;;;;5072343;28;20044;-57
2023/09/07 13:40:57;;;;;;;6.15;2.60;;;;;;;;;;5072927;28;20143;-57
2023/09/07 13:43:23;;;;;;;8.82;3.05;;;;;;;;;;5074102;28;20048;-57
2023/09/07 13:45:49;;;;;;;4.30;2.60;;;;;;;;;;5073780;28;20128;-57
2023/09/07 13:48:15;;;;;;;4.55;2.70;;;;;;;;;;5070737;28;20062;-56
2023/09/07 13:50:42;;;;;;;5.72;2.50;;;;;;;;;;5072819;28;20048;-57
2023/09/07 13:53:09;;;;;;;4.32;2.67;;;;;;;;;;5073476;28;20051;-57
2023/09/07 13:55:35;;;;;;;4.82;2.63;;;;;;;;;;5072076;28;20484;-57
2023/09/07 13:58:01;;;;;;;4.53;2.67;;;;;;;;;;5072767;28;20080;-57
2023/09/07 14:00:27;;;;;;;5.95;2.92;;;;;;;;;;5068809;28;20059;-57
2023/09/07 14:02:54;;;;;;;9.05;3.28;;;;;;;;;;5069153;28;20036;-57
2023/09/07 14:05:20;;;;;;;4.72;3.10;;;;;;;;;;5068333;28;20029;-57
2023/09/07 14:07:46;;;;;;;5.30;3.28;;;;;;;;;;5073085;28;20143;-57
2023/09/07 14:10:12;;;;;;;6.10;3.03;;;;;;;;;;5070563;28;20089;-57
2023/09/07 14:12:38;;;;;;;5.70;3.20;;;;;;;;;;5072103;28;20101;-57
2023/09/07 14:15:05;;;;;;;8.20;3.10;;;;;;;;;;5071357;28;20040;-57
2023/09/07 14:17:31;;;;;;;7.30;2.63;;;;;;;;;;5072431;28;20044;-57
2023/09/07 14:19:57;;;;;;;5.38;2.88;;;;;;;;;;5071883;28;20083;-57
2023/09/07 14:22:23;;;;;;;9.70;3.42;;;;;;;;;;5069574;28;20109;-57
2023/09/07 14:24:50;;;;;;;6.97;2.95;;;;;;;;;;5077913;28;20036;-57
2023/09/07 14:27:16;;;;;;;6.82;3.00;;;;;;;;;;5064145;28;20056;-57
2023/09/07 14:29:42;;;;;;;7.25;3.08;;;;;;;;;;5068429;28;20257;-57
2023/09/07 14:32:08;;;;;;;8.23;3.10;;;;;;;;;;5066573;28;20040;-56
2023/09/07 14:34:34;;;;;;;5.63;2.97;;;;;;;;;;5072851;28;20510;-57
2023/09/07 14:37:02;;;;;;;8.63;3.50;;;;;;;;;;5071700;28;20199;-56